ADDS METAR Data INFO
IDs: Format: Raw Decoded Include TAF

Data at: 2054 UTC 19 Jul 2018

KPWA 191953Z 00000KT 10SM CLR 41/15 A2983 RMK AO2 SLP079 T04060150
KPWA 191853Z VRB04KT 10SM CLR 39/18 A2984 RMK AO2 SLP084 T03940183
KPWA 191753Z VRB04KT 10SM CLR 37/18 A2986 RMK AO2 SLP092 T03670183 10372 20239 58004
KPWA 191653Z 17005KT 10SM CLR 34/19 A2988 RMK AO2 SLP098 T03440194
KPWA 191553Z 24003KT 10SM CLR 32/19 A2988 RMK AO2 SLP098 T03220194
KPWA 191453Z 20009KT 10SM CLR 31/20 A2988 RMK AO2 SLP097 T03110200 50000
KPWA 191353Z 19009KT 10SM CLR 28/21 A2988 RMK AO2 SLP100 T02830206
KPWA 191253Z 16004KT 10SM CLR 26/23 A2988 RMK AO2 SLP100 T02560228
KPWA 191153Z COR 17005KT 9SM CLR 24/22 A2988 RMK AO2 SLP099 70001 T02390222 10272 20239 55003
KPWA 191053Z AUTO 15006KT 10SM CLR 24/23 A2987 RMK AO2 SLP097 T02440228
KPWA 190953Z AUTO 12005KT 10SM CLR 24/23 A2988 RMK AO2 SLP101 T02440228
KPWA 190853Z AUTO 06007KT 10SM CLR 26/23 A2988 RMK AO2 SLP101 T02560228 55005
KPWA 190753Z AUTO 11003KT 10SM CLR 26/22 A2987 RMK AO2 SLP097 T02610222
KPWA 190653Z AUTO 10006KT 10SM CLR 27/22 A2990 RMK AO2 SLP106 T02670217
KPWA 190553Z AUTO 12006KT 10SM CLR 27/21 A2990 RMK AO2 SLP107 T02720211 10328 20272 403330250 51006
KPWA 190453Z AUTO 11006KT 10SM CLR 28/21 A2990 RMK AO2 SLP105 T02780211
KPWA 190353Z AUTO 10007KT 10SM CLR 28/22 A2990 RMK AO2 SLP107 T02780222
KPWA 190253Z AUTO 10007KT 10SM CLR 28/23 A2988 RMK AO2 SLP101 T02830228 53001
KPWA 190153Z 10006KT 10SM CLR 30/21 A2987 RMK AO2 SLP099 T03000211
KPWA 190053Z 10009KT 10SM CLR 32/21 A2987 RMK AO2 SLP097 T03170206
KPWA 182353Z 13007KT 10SM CLR 33/21 A2988 RMK AO2 SLP099 60000 T03280211 10333 20283 56023
KPWA 182253Z 14009KT 10SM CLR 33/21 A2990 RMK AO2 SLP105 T03280211
KPWA 182153Z 10007KT 10SM CLR 32/21 A2992 RMK AO2 SLP113 T03220211
KPWA 182053Z 06005KT 10SM CLR 30/23 A2995 RMK AO2 SLP123 60000 T03000228 58008
KPWA 181953Z 06008KT 10SM CLR 29/24 A2996 RMK AO2 RAE1856B21E30 SLP129 P0000 T02890244
KPWA 181853Z 04008KT 10SM -RA FEW100 SCT120 29/23 A2997 RMK AO2 RAB46 SLP129 P0000 T02890233
KPWA 181753Z 03004KT 10SM CLR 29/23 A2997 RMK AO2 SLP131 60001 T02940233 10300 20250 53004
KPWA 181653Z VRB03KT 10SM CLR 29/23 A2997 RMK AO2 SLP130 T02940233
KPWA 181553Z 15014KT 10SM FEW085 BKN120 27/23 A2993 RMK AO2 RAB1454E03 SLP118 P0000 T02670228
KPWA 181453Z 16010KT 10SM FEW085 BKN110 26/23 A2996 RMK AO2 RAB24E44 SLP128 P0001 60001 T02560233 56009
KPWA 181353Z 14005KT 10SM FEW095 BKN110 26/23 A2996 RMK AO2 RAE11 SLP127 P0000 T02560228
KPWA 181253Z 06011KT 10SM -RA FEW080 BKN110 26/23 A2995 RMK AO2 SLP124 P0000 T02560233
KPWA 181153Z AUTO 06003KT 10SM -RA FEW120 26/23 A2999 RMK AO2 SLP136 P0000 60000 T02560233 10294 20250 56003
KPWA 181053Z AUTO 16003KT 10SM -RA FEW120 26/23 A2999 RMK AO2 RAB36 SLP136 P0000 T02560228
KPWA 180953Z AUTO 06007KT 10SM BKN120 26/23 A2998 RMK AO2 SLP134 T02610228